Terminal Aerodrome Forecast
Issued by NWS Paducah, KY

Home | Current Version | Previous Version | Graphics & Text | Print | Product List | Glossary On
Versions: 1 2 3 4 5 6 7 8 9 10 11 12 13 14 15
818
FTUS43 KPAH 250852 AAA
TAFPAH
TAF AMD
KPAH 250852Z 2509/2606 17013G21KT P6SM -SHRA BKN040
      TEMPO 2509/2510 26020G35KT 3SM SHRA
     FM251400 17013G21KT P6SM -SHRA BKN030
     FM251700 17014G22KT P6SM -SHRA BKN040
     FM260100 17005KT P6SM BKN050=

USA.gov is the U.S. government's official web portal to all federal, state and local government web resources and services.